sensor_id;sensor_type;location;lat;lon;timestamp;P1;durP1;ratioP1;P2;durP2;ratioP2
14241;SDS011;7205;50.864;12.766;2023-09-19T00:02:27;1.63;;;1.20;;
14241;SDS011;7205;50.864;12.766;2023-09-19T00:04:54;2.30;;;1.80;;
14241;SDS011;7205;50.864;12.766;2023-09-19T00:07:21;1.30;;;1.20;;
14241;SDS011;7205;50.864;12.766;2023-09-19T00:09:48;1.13;;;1.03;;
14241;SDS011;7205;50.864;12.766;2023-09-19T00:12:15;1.10;;;1.00;;
14241;SDS011;7205;50.864;12.766;2023-09-19T00:14:43;1.53;;;1.17;;
14241;SDS011;7205;50.864;12.766;2023-09-19T00:17:09;1.83;;;1.03;;
14241;SDS011;7205;50.864;12.766;2023-09-19T00:19:38;1.23;;;1.10;;
14241;SDS011;7205;50.864;12.766;2023-09-19T00:22:07;1.50;;;1.03;;
14241;SDS011;7205;50.864;12.766;2023-09-19T00:24:34;1.10;;;1.00;;
14241;SDS011;7205;50.864;12.766;2023-09-19T00:27:01;1.23;;;1.13;;
14241;SDS011;7205;50.864;12.766;2023-09-19T00:29:27;1.50;;;1.13;;
14241;SDS011;7205;50.864;12.766;2023-09-19T00:31:56;3.23;;;2.13;;
14241;SDS011;7205;50.864;12.766;2023-09-19T00:34:24;1.60;;;1.10;;
14241;SDS011;7205;50.864;12.766;2023-09-19T00:36:52;2.07;;;0.87;;
14241;SDS011;7205;50.864;12.766;2023-09-19T00:39:19;2.17;;;1.17;;
14241;SDS011;7205;50.864;12.766;2023-09-19T00:41:47;2.07;;;1.10;;
14241;SDS011;7205;50.864;12.766;2023-09-19T00:44:14;1.43;;;1.10;;
14241;SDS011;7205;50.864;12.766;2023-09-19T00:46:42;1.10;;;1.10;;
14241;SDS011;7205;50.864;12.766;2023-09-19T00:49:13;1.13;;;1.00;;
14241;SDS011;7205;50.864;12.766;2023-09-19T00:51:41;1.60;;;1.50;;
14241;SDS011;7205;50.864;12.766;2023-09-19T00:54:14;2.03;;;1.70;;
14241;SDS011;7205;50.864;12.766;2023-09-19T00:56:44;3.07;;;2.77;;
14241;SDS011;7205;50.864;12.766;2023-09-19T00:59:14;1.93;;;1.73;;
14241;SDS011;7205;50.864;12.766;2023-09-19T01:01:42;1.30;;;1.20;;
14241;SDS011;7205;50.864;12.766;2023-09-19T01:04:11;1.17;;;1.00;;
14241;SDS011;7205;50.864;12.766;2023-09-19T01:06:39;2.33;;;1.50;;
14241;SDS011;7205;50.864;12.766;2023-09-19T01:09:05;1.77;;;1.03;;
14241;SDS011;7205;50.864;12.766;2023-09-19T01:11:35;1.57;;;1.17;;
14241;SDS011;7205;50.864;12.766;2023-09-19T01:14:12;1.67;;;1.10;;
14241;SDS011;7205;50.864;12.766;2023-09-19T01:16:48;2.30;;;0.90;;
14241;SDS011;7205;50.864;12.766;2023-09-19T01:19:29;1.13;;;0.93;;
14241;SDS011;7205;50.864;12.766;2023-09-19T01:22:16;1.30;;;0.83;;
14241;SDS011;7205;50.864;12.766;2023-09-19T01:24:58;1.43;;;1.17;;
14241;SDS011;7205;50.864;12.766;2023-09-19T01:27:59;1.47;;;1.10;;
14241;SDS011;7205;50.864;12.766;2023-09-19T01:30:48;0.90;;;0.90;;
14241;SDS011;7205;50.864;12.766;2023-09-19T01:33:23;2.50;;;0.90;;
14241;SDS011;7205;50.864;12.766;2023-09-19T01:35:51;2.23;;;1.00;;
14241;SDS011;7205;50.864;12.766;2023-09-19T01:38:22;1.97;;;0.90;;
14241;SDS011;7205;50.864;12.766;2023-09-19T01:40:51;1.83;;;0.83;;
14241;SDS011;7205;50.864;12.766;2023-09-19T01:43:26;1.63;;;0.90;;
14241;SDS011;7205;50.864;12.766;2023-09-19T01:45:59;0.77;;;0.77;;
14241;SDS011;7205;50.864;12.766;2023-09-19T01:48:35;1.77;;;0.90;;
14241;SDS011;7205;50.864;12.766;2023-09-19T01:51:08;1.50;;;0.93;;
14241;SDS011;7205;50.864;12.766;2023-09-19T01:53:40;2.20;;;0.90;;
14241;SDS011;7205;50.864;12.766;2023-09-19T01:56:12;2.27;;;1.00;;
14241;SDS011;7205;50.864;12.766;2023-09-19T01:58:48;0.90;;;0.90;;
14241;SDS011;7205;50.864;12.766;2023-09-19T02:01:22;1.80;;;1.20;;
14241;SDS011;7205;50.864;12.766;2023-09-19T02:03:51;1.13;;;1.10;;
14241;SDS011;7205;50.864;12.766;2023-09-19T02:06:19;2.13;;;1.07;;
14241;SDS011;7205;50.864;12.766;2023-09-19T02:08:46;1.27;;;0.90;;
14241;SDS011;7205;50.864;12.766;2023-09-19T02:11:13;1.17;;;1.07;;
14241;SDS011;7205;50.864;12.766;2023-09-19T02:13:40;1.13;;;1.03;;
14241;SDS011;7205;50.864;12.766;2023-09-19T02:16:07;2.03;;;1.00;;
14241;SDS011;7205;50.864;12.766;2023-09-19T02:18:37;1.30;;;1.20;;
14241;SDS011;7205;50.864;12.766;2023-09-19T02:21:04;1.37;;;0.90;;
14241;SDS011;7205;50.864;12.766;2023-09-19T02:23:34;1.27;;;1.03;;
14241;SDS011;7205;50.864;12.766;2023-09-19T02:26:01;4.17;;;1.03;;
14241;SDS011;7205;50.864;12.766;2023-09-19T02:28:29;1.30;;;1.17;;
14241;SDS011;7205;50.864;12.766;2023-09-19T02:30:57;1.53;;;0.90;;
14241;SDS011;7205;50.864;12.766;2023-09-19T02:33:24;2.70;;;1.00;;
14241;SDS011;7205;50.864;12.766;2023-09-19T02:35:56;1.70;;;1.27;;
14241;SDS011;7205;50.864;12.766;2023-09-19T02:38:23;1.23;;;1.10;;
14241;SDS011;7205;50.864;12.766;2023-09-19T02:40:51;1.53;;;1.10;;
14241;SDS011;7205;50.864;12.766;2023-09-19T02:43:20;2.27;;;1.10;;
14241;SDS011;7205;50.864;12.766;2023-09-19T02:45:47;1.13;;;0.90;;
14241;SDS011;7205;50.864;12.766;2023-09-19T02:48:15;1.47;;;0.90;;
14241;SDS011;7205;50.864;12.766;2023-09-19T02:50:43;1.23;;;0.93;;
14241;SDS011;7205;50.864;12.766;2023-09-19T02:53:12;1.77;;;1.23;;
14241;SDS011;7205;50.864;12.766;2023-09-19T02:55:40;0.80;;;0.80;;
14241;SDS011;7205;50.864;12.766;2023-09-19T02:58:08;2.00;;;1.17;;
14241;SDS011;7205;50.864;12.766;2023-09-19T03:00:37;2.00;;;1.03;;
14241;SDS011;7205;50.864;12.766;2023-09-19T03:03:05;1.13;;;1.10;;
14241;SDS011;7205;50.864;12.766;2023-09-19T03:05:33;1.17;;;1.00;;
14241;SDS011;7205;50.864;12.766;2023-09-19T03:08:01;5.07;;;1.17;;
14241;SDS011;7205;50.864;12.766;2023-09-19T03:10:30;1.57;;;1.13;;
14241;SDS011;7205;50.864;12.766;2023-09-19T03:12:58;2.27;;;1.37;;
14241;SDS011;7205;50.864;12.766;2023-09-19T03:15:26;2.40;;;1.27;;
14241;SDS011;7205;50.864;12.766;2023-09-19T03:17:52;1.53;;;1.00;;
14241;SDS011;7205;50.864;12.766;2023-09-19T03:20:21;1.10;;;1.00;;
14241;SDS011;7205;50.864;12.766;2023-09-19T03:22:49;1.60;;;1.50;;
14241;SDS011;7205;50.864;12.766;2023-09-19T03:25:17;1.50;;;1.30;;
14241;SDS011;7205;50.864;12.766;2023-09-19T03:27:49;2.63;;;2.10;;
14241;SDS011;7205;50.864;12.766;2023-09-19T03:30:17;1.97;;;1.40;;
14241;SDS011;7205;50.864;12.766;2023-09-19T03:32:44;1.50;;;1.40;;
14241;SDS011;7205;50.864;12.766;2023-09-19T03:35:15;2.40;;;1.27;;
14241;SDS011;7205;50.864;12.766;2023-09-19T03:37:43;1.97;;;1.50;;
14241;SDS011;7205;50.864;12.766;2023-09-19T03:40:10;1.40;;;1.30;;
14241;SDS011;7205;50.864;12.766;2023-09-19T03:42:38;2.57;;;1.40;;
14241;SDS011;7205;50.864;12.766;2023-09-19T03:45:08;1.50;;;1.30;;
14241;SDS011;7205;50.864;12.766;2023-09-19T03:47:38;2.37;;;1.90;;
14241;SDS011;7205;50.864;12.766;2023-09-19T03:50:07;2.33;;;1.50;;
14241;SDS011;7205;50.864;12.766;2023-09-19T03:52:36;3.53;;;1.80;;
14241;SDS011;7205;50.864;12.766;2023-09-19T03:55:03;2.10;;;1.40;;
14241;SDS011;7205;50.864;12.766;2023-09-19T03:57:31;3.00;;;1.57;;
14241;SDS011;7205;50.864;12.766;2023-09-19T03:59:58;2.83;;;1.50;;
14241;SDS011;7205;50.864;12.766;2023-09-19T04:02:26;1.53;;;1.43;;
14241;SDS011;7205;50.864;12.766;2023-09-19T04:04:58;1.60;;;1.50;;
14241;SDS011;7205;50.864;12.766;2023-09-19T04:07:25;1.40;;;1.30;;
14241;SDS011;7205;50.864;12.766;2023-09-19T04:09:54;1.40;;;1.30;;
14241;SDS011;7205;50.864;12.766;2023-09-19T04:12:21;1.73;;;1.13;;
14241;SDS011;7205;50.864;12.766;2023-09-19T04:14:47;1.23;;;0.83;;
14241;SDS011;7205;50.864;12.766;2023-09-19T04:17:15;1.27;;;1.10;;
14241;SDS011;7205;50.864;12.766;2023-09-19T04:19:45;1.87;;;1.20;;
14241;SDS011;7205;50.864;12.766;2023-09-19T04:22:12;1.57;;;1.03;;
14241;SDS011;7205;50.864;12.766;2023-09-19T04:24:39;2.20;;;1.77;;
14241;SDS011;7205;50.864;12.766;2023-09-19T04:27:06;2.60;;;1.60;;
14241;SDS011;7205;50.864;12.766;2023-09-19T04:29:33;2.07;;;1.20;;
14241;SDS011;7205;50.864;12.766;2023-09-19T04:32:00;1.80;;;1.53;;
14241;SDS011;7205;50.864;12.766;2023-09-19T04:34:29;1.60;;;1.40;;
14241;SDS011;7205;50.864;12.766;2023-09-19T04:36:57;1.50;;;1.40;;
14241;SDS011;7205;50.864;12.766;2023-09-19T04:39:25;1.40;;;1.27;;
14241;SDS011;7205;50.864;12.766;2023-09-19T04:41:52;1.20;;;1.20;;
14241;SDS011;7205;50.864;12.766;2023-09-19T04:44:20;3.23;;;1.40;;
14241;SDS011;7205;50.864;12.766;2023-09-19T04:46:47;2.73;;;1.30;;
14241;SDS011;7205;50.864;12.766;2023-09-19T04:49:14;1.30;;;1.20;;
14241;SDS011;7205;50.864;12.766;2023-09-19T04:51:40;1.40;;;1.30;;
14241;SDS011;7205;50.864;12.766;2023-09-19T04:54:09;3.80;;;1.30;;
14241;SDS011;7205;50.864;12.766;2023-09-19T04:56:36;1.30;;;1.20;;
14241;SDS011;7205;50.864;12.766;2023-09-19T04:59:05;1.30;;;1.20;;
14241;SDS011;7205;50.864;12.766;2023-09-19T05:01:32;1.67;;;1.27;;
14241;SDS011;7205;50.864;12.766;2023-09-19T05:03:59;2.03;;;1.20;;
14241;SDS011;7205;50.864;12.766;2023-09-19T05:06:26;1.20;;;1.10;;
14241;SDS011;7205;50.864;12.766;2023-09-19T05:08:52;1.30;;;1.20;;
14241;SDS011;7205;50.864;12.766;2023-09-19T05:11:21;1.27;;;1.27;;
14241;SDS011;7205;50.864;12.766;2023-09-19T05:13:48;1.67;;;0.90;;
14241;SDS011;7205;50.864;12.766;2023-09-19T05:16:15;1.30;;;1.20;;
14241;SDS011;7205;50.864;12.766;2023-09-19T05:18:42;1.53;;;0.90;;
14241;SDS011;7205;50.864;12.766;2023-09-19T05:21:09;1.93;;;1.80;;
14241;SDS011;7205;50.864;12.766;2023-09-19T05:23:36;1.43;;;1.30;;
14241;SDS011;7205;50.864;12.766;2023-09-19T05:26:03;1.90;;;1.37;;
14241;SDS011;7205;50.864;12.766;2023-09-19T05:28:31;1.10;;;1.00;;
14241;SDS011;7205;50.864;12.766;2023-09-19T05:31:00;0.87;;;0.87;;
14241;SDS011;7205;50.864;12.766;2023-09-19T05:33:26;1.07;;;1.07;;
14241;SDS011;7205;50.864;12.766;2023-09-19T05:35:53;1.50;;;1.20;;
14241;SDS011;7205;50.864;12.766;2023-09-19T05:38:21;1.33;;;1.10;;
14241;SDS011;7205;50.864;12.766;2023-09-19T05:40:52;1.10;;;1.00;;
14241;SDS011;7205;50.864;12.766;2023-09-19T05:43:19;2.57;;;2.37;;
14241;SDS011;7205;50.864;12.766;2023-09-19T05:45:47;2.17;;;1.30;;
14241;SDS011;7205;50.864;12.766;2023-09-19T05:48:17;1.20;;;1.10;;
14241;SDS011;7205;50.864;12.766;2023-09-19T05:50:46;3.60;;;1.10;;
14241;SDS011;7205;50.864;12.766;2023-09-19T05:53:13;1.23;;;1.10;;
14241;SDS011;7205;50.864;12.766;2023-09-19T05:55:41;1.60;;;1.20;;
14241;SDS011;7205;50.864;12.766;2023-09-19T05:58:08;1.93;;;1.50;;
14241;SDS011;7205;50.864;12.766;2023-09-19T06:00:35;1.80;;;1.13;;
14241;SDS011;7205;50.864;12.766;2023-09-19T06:03:03;1.30;;;1.20;;
14241;SDS011;7205;50.864;12.766;2023-09-19T06:05:30;2.10;;;1.17;;
14241;SDS011;7205;50.864;12.766;2023-09-19T06:07:57;0.70;;;0.70;;
14241;SDS011;7205;50.864;12.766;2023-09-19T06:10:26;2.43;;;1.03;;
14241;SDS011;7205;50.864;12.766;2023-09-19T06:12:53;1.60;;;1.40;;
14241;SDS011;7205;50.864;12.766;2023-09-19T06:15:20;2.40;;;1.80;;
14241;SDS011;7205;50.864;12.766;2023-09-19T06:17:48;2.60;;;1.23;;
14241;SDS011;7205;50.864;12.766;2023-09-19T06:20:20;3.90;;;1.80;;
14241;SDS011;7205;50.864;12.766;2023-09-19T06:22:48;2.70;;;1.20;;
14241;SDS011;7205;50.864;12.766;2023-09-19T06:25:15;3.13;;;1.33;;
14241;SDS011;7205;50.864;12.766;2023-09-19T06:27:45;1.47;;;0.97;;
14241;SDS011;7205;50.864;12.766;2023-09-19T06:30:12;0.93;;;0.93;;
14241;SDS011;7205;50.864;12.766;2023-09-19T06:32:39;3.80;;;1.10;;
14241;SDS011;7205;50.864;12.766;2023-09-19T06:35:09;3.20;;;0.73;;
14241;SDS011;7205;50.864;12.766;2023-09-19T06:37:37;1.20;;;0.90;;
14241;SDS011;7205;50.864;12.766;2023-09-19T06:40:06;2.10;;;1.00;;
14241;SDS011;7205;50.864;12.766;2023-09-19T06:42:38;1.10;;;0.77;;
14241;SDS011;7205;50.864;12.766;2023-09-19T06:45:06;2.10;;;0.87;;
14241;SDS011;7205;50.864;12.766;2023-09-19T06:47:34;1.10;;;1.10;;
14241;SDS011;7205;50.864;12.766;2023-09-19T06:50:01;4.17;;;1.30;;
14241;SDS011;7205;50.864;12.766;2023-09-19T06:52:30;1.20;;;1.10;;
14241;SDS011;7205;50.864;12.766;2023-09-19T06:54:59;1.20;;;0.87;;
14241;SDS011;7205;50.864;12.766;2023-09-19T06:57:28;2.57;;;0.90;;
14241;SDS011;7205;50.864;12.766;2023-09-19T06:59:55;1.23;;;0.97;;
14241;SDS011;7205;50.864;12.766;2023-09-19T07:02:22;1.97;;;1.10;;
14241;SDS011;7205;50.864;12.766;2023-09-19T07:04:49;3.23;;;1.10;;
14241;SDS011;7205;50.864;12.766;2023-09-19T07:07:16;1.07;;;0.90;;
14241;SDS011;7205;50.864;12.766;2023-09-19T07:09:43;1.07;;;1.00;;
14241;SDS011;7205;50.864;12.766;2023-09-19T07:12:11;0.80;;;0.80;;
14241;SDS011;7205;50.864;12.766;2023-09-19T07:14:38;0.87;;;0.80;;
14241;SDS011;7205;50.864;12.766;2023-09-19T07:17:05;1.90;;;1.00;;
14241;SDS011;7205;50.864;12.766;2023-09-19T07:19:33;1.10;;;1.00;;
14241;SDS011;7205;50.864;12.766;2023-09-19T07:22:00;1.00;;;0.90;;
14241;SDS011;7205;50.864;12.766;2023-09-19T07:24:27;1.97;;;1.00;;
14241;SDS011;7205;50.864;12.766;2023-09-19T07:26:54;1.50;;;0.80;;
14241;SDS011;7205;50.864;12.766;2023-09-19T07:29:23;1.23;;;1.07;;
14241;SDS011;7205;50.864;12.766;2023-09-19T07:31:51;1.17;;;1.07;;
14241;SDS011;7205;50.864;12.766;2023-09-19T07:34:18;1.23;;;0.90;;
14241;SDS011;7205;50.864;12.766;2023-09-19T07:36:46;2.77;;;0.83;;
14241;SDS011;7205;50.864;12.766;2023-09-19T07:39:13;1.27;;;1.17;;
14241;SDS011;7205;50.864;12.766;2023-09-19T07:41:39;2.90;;;1.73;;
14241;SDS011;7205;50.864;12.766;2023-09-19T07:44:07;1.10;;;0.80;;
14241;SDS011;7205;50.864;12.766;2023-09-19T07:46:36;1.80;;;1.70;;
14241;SDS011;7205;50.864;12.766;2023-09-19T07:49:03;3.20;;;0.90;;
14241;SDS011;7205;50.864;12.766;2023-09-19T07:51:30;0.80;;;0.80;;
14241;SDS011;7205;50.864;12.766;2023-09-19T07:53:58;0.73;;;0.67;;
14241;SDS011;7205;50.864;12.766;2023-09-19T07:56:25;1.10;;;1.00;;
14241;SDS011;7205;50.864;12.766;2023-09-19T07:58:53;1.90;;;0.90;;
14241;SDS011;7205;50.864;12.766;2023-09-19T08:01:19;2.10;;;0.90;;
14241;SDS011;7205;50.864;12.766;2023-09-19T08:03:50;0.90;;;0.90;;
14241;SDS011;7205;50.864;12.766;2023-09-19T08:06:17;0.77;;;0.77;;
14241;SDS011;7205;50.864;12.766;2023-09-19T08:08:44;0.70;;;0.70;;
14241;SDS011;7205;50.864;12.766;2023-09-19T08:11:11;2.30;;;2.07;;
14241;SDS011;7205;50.864;12.766;2023-09-19T08:13:38;1.27;;;1.17;;
14241;SDS011;7205;50.864;12.766;2023-09-19T08:16:08;1.63;;;0.90;;
14241;SDS011;7205;50.864;12.766;2023-09-19T08:18:35;0.90;;;0.90;;
14241;SDS011;7205;50.864;12.766;2023-09-19T08:21:04;1.10;;;1.00;;
14241;SDS011;7205;50.864;12.766;2023-09-19T08:23:33;1.10;;;0.90;;
14241;SDS011;7205;50.864;12.766;2023-09-19T08:26:00;1.00;;;0.70;;
14241;SDS011;7205;50.864;12.766;2023-09-19T08:28:31;1.57;;;1.10;;
14241;SDS011;7205;50.864;12.766;2023-09-19T08:31:01;0.70;;;0.67;;
14241;SDS011;7205;50.864;12.766;2023-09-19T08:33:29;0.63;;;0.63;;
14241;SDS011;7205;50.864;12.766;2023-09-19T08:35:57;0.77;;;0.70;;
14241;SDS011;7205;50.864;12.766;2023-09-19T08:38:26;0.90;;;0.90;;
14241;SDS011;7205;50.864;12.766;2023-09-19T08:40:56;0.90;;;0.90;;
14241;SDS011;7205;50.864;12.766;2023-09-19T08:43:24;1.63;;;0.87;;
14241;SDS011;7205;50.864;12.766;2023-09-19T08:45:53;1.00;;;0.80;;
14241;SDS011;7205;50.864;12.766;2023-09-19T08:48:29;1.50;;;1.07;;
14241;SDS011;7205;50.864;12.766;2023-09-19T08:50:58;0.70;;;0.70;;
14241;SDS011;7205;50.864;12.766;2023-09-19T08:53:34;0.80;;;0.70;;
14241;SDS011;7205;50.864;12.766;2023-09-19T08:56:18;1.10;;;1.00;;
14241;SDS011;7205;50.864;12.766;2023-09-19T08:58:48;1.60;;;1.07;;
14241;SDS011;7205;50.864;12.766;2023-09-19T09:01:18;2.53;;;0.60;;
14241;SDS011;7205;50.864;12.766;2023-09-19T09:03:49;0.60;;;0.60;;
14241;SDS011;7205;50.864;12.766;2023-09-19T09:06:17;0.80;;;0.57;;
14241;SDS011;7205;50.864;12.766;2023-09-19T09:08:47;0.93;;;0.63;;
14241;SDS011;7205;50.864;12.766;2023-09-19T09:11:16;0.57;;;0.57;;
14241;SDS011;7205;50.864;12.766;2023-09-19T09:13:43;0.70;;;0.60;;
14241;SDS011;7205;50.864;12.766;2023-09-19T09:16:11;0.70;;;0.70;;
14241;SDS011;7205;50.864;12.766;2023-09-19T09:18:39;2.17;;;0.63;;
14241;SDS011;7205;50.864;12.766;2023-09-19T09:21:06;0.80;;;0.60;;
14241;SDS011;7205;50.864;12.766;2023-09-19T09:23:33;0.83;;;0.60;;
14241;SDS011;7205;50.864;12.766;2023-09-19T09:26:01;1.23;;;0.70;;
14241;SDS011;7205;50.864;12.766;2023-09-19T09:28:30;0.60;;;0.60;;
14241;SDS011;7205;50.864;12.766;2023-09-19T09:31:01;1.77;;;0.80;;
14241;SDS011;7205;50.864;12.766;2023-09-19T09:33:33;0.60;;;0.60;;
14241;SDS011;7205;50.864;12.766;2023-09-19T09:36:01;0.70;;;0.70;;
14241;SDS011;7205;50.864;12.766;2023-09-19T09:38:42;0.97;;;0.77;;
14241;SDS011;7205;50.864;12.766;2023-09-19T09:41:12;0.80;;;0.60;;
14241;SDS011;7205;50.864;12.766;2023-09-19T09:43:41;1.20;;;1.10;;
14241;SDS011;7205;50.864;12.766;2023-09-19T09:46:12;2.10;;;0.90;;
14241;SDS011;7205;50.864;12.766;2023-09-19T09:49:06;1.10;;;0.97;;
14241;SDS011;7205;50.864;12.766;2023-09-19T09:51:44;1.10;;;0.97;;
14241;SDS011;7205;50.864;12.766;2023-09-19T09:54:24;0.70;;;0.70;;
14241;SDS011;7205;50.864;12.766;2023-09-19T09:57:01;0.97;;;0.60;;
14241;SDS011;7205;50.864;12.766;2023-09-19T09:59:45;0.53;;;0.53;;
14241;SDS011;7205;50.864;12.766;2023-09-19T10:02:13;0.60;;;0.60;;
14241;SDS011;7205;50.864;12.766;2023-09-19T10:04:42;0.90;;;0.50;;
14241;SDS011;7205;50.864;12.766;2023-09-19T10:07:24;1.67;;;0.73;;
14241;SDS011;7205;50.864;12.766;2023-09-19T10:09:57;0.80;;;0.80;;
14241;SDS011;7205;50.864;12.766;2023-09-19T10:12:36;1.93;;;0.77;;
14241;SDS011;7205;50.864;12.766;2023-09-19T10:15:07;0.80;;;0.80;;
14241;SDS011;7205;50.864;12.766;2023-09-19T10:17:41;0.68;;;0.68;;
14241;SDS011;7205;50.864;12.766;2023-09-19T10:20:12;1.70;;;0.80;;
14241;SDS011;7205;50.864;12.766;2023-09-19T10:22:49;0.90;;;0.87;;
14241;SDS011;7205;50.864;12.766;2023-09-19T10:25:24;1.00;;;0.90;;
14241;SDS011;7205;50.864;12.766;2023-09-19T10:27:55;3.00;;;1.00;;
14241;SDS011;7205;50.864;12.766;2023-09-19T10:30:25;2.10;;;1.00;;
14241;SDS011;7205;50.864;12.766;2023-09-19T10:32:56;1.33;;;0.70;;
14241;SDS011;7205;50.864;12.766;2023-09-19T10:35:27;1.50;;;0.80;;
14241;SDS011;7205;50.864;12.766;2023-09-19T10:37:55;2.00;;;0.73;;
14241;SDS011;7205;50.864;12.766;2023-09-19T10:40:26;0.80;;;0.80;;
14241;SDS011;7205;50.864;12.766;2023-09-19T10:43:01;1.20;;;1.10;;
14241;SDS011;7205;50.864;12.766;2023-09-19T10:45:32;1.47;;;0.70;;
14241;SDS011;7205;50.864;12.766;2023-09-19T10:48:00;3.57;;;1.00;;
14241;SDS011;7205;50.864;12.766;2023-09-19T10:50:30;1.70;;;0.60;;
14241;SDS011;7205;50.864;12.766;2023-09-19T10:53:00;0.97;;;0.70;;
14241;SDS011;7205;50.864;12.766;2023-09-19T10:55:32;0.90;;;0.80;;
14241;SDS011;7205;50.864;12.766;2023-09-19T10:58:03;0.70;;;0.70;;
14241;SDS011;7205;50.864;12.766;2023-09-19T11:03:22;1.67;;;1.58;;
14241;SDS011;7205;50.864;12.766;2023-09-19T11:06:05;1.70;;;1.38;;
14241;SDS011;7205;50.864;12.766;2023-09-19T11:08:59;0.93;;;0.60;;
14241;SDS011;7205;50.864;12.766;2023-09-19T11:11:47;1.17;;;0.90;;
14241;SDS011;7205;50.864;12.766;2023-09-19T11:17:30;1.83;;;0.93;;
14241;SDS011;7205;50.864;12.766;2023-09-19T11:23:19;1.83;;;0.70;;
14241;SDS011;7205;50.864;12.766;2023-09-19T11:25:50;2.17;;;0.70;;
14241;SDS011;7205;50.864;12.766;2023-09-19T11:28:34;0.80;;;0.80;;
14241;SDS011;7205;50.864;12.766;2023-09-19T11:40:25;2.90;;;1.30;;
14241;SDS011;7205;50.864;12.766;2023-09-19T11:42:53;0.93;;;0.93;;
14241;SDS011;7205;50.864;12.766;2023-09-19T11:48:26;1.10;;;1.00;;
14241;SDS011;7205;50.864;12.766;2023-09-19T11:50:56;0.90;;;0.80;;
14241;SDS011;7205;50.864;12.766;2023-09-19T11:53:24;1.20;;;1.10;;
14241;SDS011;7205;50.864;12.766;2023-09-19T11:56:01;1.37;;;1.00;;
14241;SDS011;7205;50.864;12.766;2023-09-19T11:58:30;1.80;;;1.00;;
14241;SDS011;7205;50.864;12.766;2023-09-19T12:00:59;1.13;;;1.00;;
14241;SDS011;7205;50.864;12.766;2023-09-19T12:03:29;2.10;;;1.20;;
14241;SDS011;7205;50.864;12.766;2023-09-19T12:05:59;1.73;;;1.13;;
14241;SDS011;7205;50.864;12.766;2023-09-19T12:08:28;2.10;;;1.00;;
14241;SDS011;7205;50.864;12.766;2023-09-19T12:10:55;1.20;;;1.10;;
14241;SDS011;7205;50.864;12.766;2023-09-19T12:13:23;1.87;;;1.60;;
14241;SDS011;7205;50.864;12.766;2023-09-19T12:15:50;2.17;;;1.50;;
14241;SDS011;7205;50.864;12.766;2023-09-19T12:18:27;1.50;;;1.40;;
14241;SDS011;7205;50.864;12.766;2023-09-19T12:20:55;1.30;;;1.20;;
14241;SDS011;7205;50.864;12.766;2023-09-19T12:23:24;2.60;;;1.27;;
14241;SDS011;7205;50.864;12.766;2023-09-19T12:25:52;1.43;;;1.33;;
14241;SDS011;7205;50.864;12.766;2023-09-19T12:28:22;2.07;;;1.20;;
14241;SDS011;7205;50.864;12.766;2023-09-19T12:30:53;1.40;;;1.30;;
14241;SDS011;7205;50.864;12.766;2023-09-19T12:33:23;1.50;;;1.40;;
14241;SDS011;7205;50.864;12.766;2023-09-19T12:35:51;1.73;;;1.40;;
14241;SDS011;7205;50.864;12.766;2023-09-19T12:38:26;1.47;;;1.37;;
14241;SDS011;7205;50.864;12.766;2023-09-19T12:40:54;2.17;;;1.27;;
14241;SDS011;7205;50.864;12.766;2023-09-19T12:43:22;1.40;;;1.30;;
14241;SDS011;7205;50.864;12.766;2023-09-19T12:45:49;0.95;;;0.88;;
14241;SDS011;7205;50.864;12.766;2023-09-19T12:48:19;3.60;;;1.33;;
14241;SDS011;7205;50.864;12.766;2023-09-19T12:50:59;2.13;;;1.10;;
14241;SDS011;7205;50.864;12.766;2023-09-19T12:53:35;3.80;;;1.13;;
14241;SDS011;7205;50.864;12.766;2023-09-19T12:56:11;5.40;;;1.20;;
14241;SDS011;7205;50.864;12.766;2023-09-19T12:58:50;1.25;;;1.05;;
14241;SDS011;7205;50.864;12.766;2023-09-19T13:01:22;3.00;;;1.10;;
14241;SDS011;7205;50.864;12.766;2023-09-19T13:04:11;1.40;;;1.30;;
14241;SDS011;7205;50.864;12.766;2023-09-19T13:06:43;2.30;;;1.50;;
14241;SDS011;7205;50.864;12.766;2023-09-19T13:09:12;1.52;;;1.42;;
14241;SDS011;7205;50.864;12.766;2023-09-19T13:11:40;1.53;;;1.43;;
14241;SDS011;7205;50.864;12.766;2023-09-19T13:14:19;1.63;;;1.53;;
14241;SDS011;7205;50.864;12.766;2023-09-19T13:16:54;1.40;;;1.30;;
14241;SDS011;7205;50.864;12.766;2023-09-19T13:19:40;1.70;;;1.60;;
14241;SDS011;7205;50.864;12.766;2023-09-19T13:25:16;3.53;;;1.40;;
14241;SDS011;7205;50.864;12.766;2023-09-19T13:27:46;1.63;;;1.53;;
14241;SDS011;7205;50.864;12.766;2023-09-19T13:30:16;1.30;;;1.20;;
14241;SDS011;7205;50.864;12.766;2023-09-19T13:32:44;1.47;;;1.37;;
14241;SDS011;7205;50.864;12.766;2023-09-19T13:35:12;2.90;;;1.17;;
14241;SDS011;7205;50.864;12.766;2023-09-19T13:37:40;1.30;;;1.20;;
14241;SDS011;7205;50.864;12.766;2023-09-19T13:40:12;2.03;;;1.23;;
14241;SDS011;7205;50.864;12.766;2023-09-19T13:42:41;2.53;;;1.20;;
14241;SDS011;7205;50.864;12.766;2023-09-19T13:45:16;1.30;;;1.30;;
14241;SDS011;7205;50.864;12.766;2023-09-19T13:47:47;1.30;;;1.20;;
14241;SDS011;7205;50.864;12.766;2023-09-19T13:50:14;2.23;;;1.20;;
14241;SDS011;7205;50.864;12.766;2023-09-19T13:52:42;3.47;;;2.00;;
14241;SDS011;7205;50.864;12.766;2023-09-19T13:55:08;1.60;;;1.50;;
14241;SDS011;7205;50.864;12.766;2023-09-19T13:57:35;1.47;;;1.37;;
14241;SDS011;7205;50.864;12.766;2023-09-19T14:00:04;3.07;;;1.27;;
14241;SDS011;7205;50.864;12.766;2023-09-19T14:02:37;3.13;;;1.00;;
14241;SDS011;7205;50.864;12.766;2023-09-19T14:05:04;2.03;;;0.90;;
14241;SDS011;7205;50.864;12.766;2023-09-19T14:07:32;3.37;;;1.40;;
14241;SDS011;7205;50.864;12.766;2023-09-19T14:10:02;1.55;;;1.40;;
14241;SDS011;7205;50.864;12.766;2023-09-19T14:12:29;2.00;;;1.37;;
14241;SDS011;7205;50.864;12.766;2023-09-19T14:14:57;1.40;;;1.30;;
14241;SDS011;7205;50.864;12.766;2023-09-19T14:17:25;1.23;;;1.23;;
14241;SDS011;7205;50.864;12.766;2023-09-19T14:19:54;3.43;;;1.50;;
14241;SDS011;7205;50.864;12.766;2023-09-19T14:22:21;2.17;;;1.50;;
14241;SDS011;7205;50.864;12.766;2023-09-19T14:24:48;1.77;;;1.57;;
14241;SDS011;7205;50.864;12.766;2023-09-19T14:27:14;3.47;;;1.47;;
14241;SDS011;7205;50.864;12.766;2023-09-19T14:29:42;1.75;;;1.40;;
14241;SDS011;7205;50.864;12.766;2023-09-19T14:32:08;2.30;;;1.20;;
14241;SDS011;7205;50.864;12.766;2023-09-19T14:34:37;2.07;;;1.40;;
14241;SDS011;7205;50.864;12.766;2023-09-19T14:37:07;1.50;;;1.40;;
14241;SDS011;7205;50.864;12.766;2023-09-19T14:39:34;2.47;;;2.13;;
14241;SDS011;7205;50.864;12.766;2023-09-19T14:42:04;2.87;;;2.10;;
14241;SDS011;7205;50.864;12.766;2023-09-19T14:44:34;2.78;;;1.80;;
14241;SDS011;7205;50.864;12.766;2023-09-19T14:47:03;3.90;;;1.87;;
14241;SDS011;7205;50.864;12.766;2023-09-19T14:49:39;3.73;;;1.90;;
14241;SDS011;7205;50.864;12.766;2023-09-19T14:52:11;4.23;;;1.80;;
14241;SDS011;7205;50.864;12.766;2023-09-19T14:54:43;2.00;;;1.73;;
14241;SDS011;7205;50.864;12.766;2023-09-19T14:57:15;2.17;;;2.00;;
14241;SDS011;7205;50.864;12.766;2023-09-19T14:59:42;1.90;;;1.80;;
14241;SDS011;7205;50.864;12.766;2023-09-19T15:02:13;2.90;;;1.90;;
14241;SDS011;7205;50.864;12.766;2023-09-19T15:04:43;1.73;;;1.63;;
14241;SDS011;7205;50.864;12.766;2023-09-19T15:07:12;2.60;;;2.40;;
14241;SDS011;7205;50.864;12.766;2023-09-19T15:09:40;1.90;;;1.80;;
14241;SDS011;7205;50.864;12.766;2023-09-19T15:12:25;2.33;;;1.90;;
14241;SDS011;7205;50.864;12.766;2023-09-19T15:14:54;2.33;;;1.80;;
14241;SDS011;7205;50.864;12.766;2023-09-19T15:17:21;2.00;;;1.80;;
14241;SDS011;7205;50.864;12.766;2023-09-19T15:19:51;5.37;;;2.10;;
14241;SDS011;7205;50.864;12.766;2023-09-19T15:22:18;2.00;;;1.90;;
14241;SDS011;7205;50.864;12.766;2023-09-19T15:24:47;2.43;;;1.87;;
14241;SDS011;7205;50.864;12.766;2023-09-19T15:27:14;3.73;;;2.40;;
14241;SDS011;7205;50.864;12.766;2023-09-19T15:29:41;2.27;;;2.07;;